Time;durP1;ratioP1;P1;durP2;ratioP2;P2;SDS_P1;SDS_P2;PMS_P1;PMS_P2;Temp;Humidity;BMP_temperature;BMP_pressure;BME280_temperature;BME280_humidity;BME280_pressure;Samples;Min_cycle;Max_cycle;Signal;HPM_P1;HPM_P2
2022/01/06 00:01:40;;;;;;;10.93;4.23;;;4.00;93.80;;;;;;4965304;29;20192;-87
2022/01/06 00:04:06;;;;;;;7.83;3.57;;;4.10;93.60;;;;;;4940980;29;20195;-87
2022/01/06 00:06:37;;;;;;;7.30;4.03;;;4.00;94.10;;;;;;4959915;29;20207;-87
2022/01/06 00:09:05;;;;;;;8.23;3.23;;;3.90;95.00;;;;;;4962602;28;20208;-87
2022/01/06 00:11:31;;;;;;;8.07;3.60;;;3.90;95.80;;;;;;4963442;29;20187;-88
2022/01/06 00:28:18;;;;;;;8.03;3.80;;;3.90;95.80;;;;;;4975699;23;20291;-90
2022/01/06 00:30:50;;;;;;;9.50;3.63;;;3.90;96.80;;;;;;4971881;28;20207;-90
2022/01/06 00:33:17;;;;;;;8.10;3.90;;;3.80;97.10;;;;;;4968294;28;20672;-89
2022/01/06 00:35:55;;;;;;;9.60;4.10;;;3.80;97.30;;;;;;4976253;28;20213;-90
2022/01/06 00:38:25;;;;;;;8.73;3.43;;;3.80;97.50;;;;;;4968336;28;20237;-89
2022/01/06 00:40:53;;;;;;;8.20;3.63;;;3.90;96.80;;;;;;4978835;28;20191;-89
2022/01/06 00:43:24;;;;;;;8.87;4.20;;;3.90;97.50;;;;;;4972856;28;20226;-89
2022/01/06 00:45:55;;;;;;;9.33;3.40;;;3.90;98.10;;;;;;4970444;28;20239;-90
2022/01/06 00:48:49;;;;;;;8.77;3.70;;;3.80;98.00;;;;;;4968077;28;20262;-90
2022/01/06 00:51:25;;;;;;;7.83;3.30;;;3.80;98.50;;;;;;4969194;28;20746;-90
2022/01/06 00:53:53;;;;;;;7.80;3.63;;;3.80;99.20;;;;;;4978135;28;20215;-91
2022/01/06 00:56:19;;;;;;;10.50;3.90;;;3.80;98.90;;;;;;4960785;28;20259;-90
2022/01/06 00:58:52;;;;;;;8.07;3.67;;;3.80;98.50;;;;;;4968725;28;20195;-90
2022/01/06 01:01:18;;;;;;;9.37;3.67;;;3.90;98.40;;;;;;4983563;28;20195;-91
2022/01/06 01:03:44;;;;;;;9.73;3.63;;;3.90;97.90;;;;;;4966685;28;20258;-90
2022/01/06 01:06:10;;;;;;;8.67;3.50;;;3.90;97.40;;;;;;4955253;28;20314;-90
2022/01/06 01:08:41;;;;;;;8.80;3.97;;;3.90;98.00;;;;;;4969145;28;20199;-90
2022/01/06 01:11:16;;;;;;;7.37;4.13;;;3.90;98.10;;;;;;4971563;28;20217;-90
2022/01/06 01:13:55;;;;;;;9.93;3.30;;;4.00;98.00;;;;;;4970168;28;20198;-89
2022/01/06 01:16:35;;;;;;;7.33;3.67;;;4.00;97.30;;;;;;4967136;28;20231;-91
2022/01/06 01:19:10;;;;;;;10.00;3.73;;;3.90;98.50;;;;;;4967130;28;20187;-90
2022/01/06 01:21:41;;;;;;;10.80;3.70;;;3.80;98.20;;;;;;4962778;28;20706;-90
2022/01/06 01:24:18;;;;;;;;;;;;;;;;;;;;;
2022/01/06 01:26:58;;;;;;;6.67;3.63;;;4.00;98.20;;;;;;4964388;28;20648;-91
2022/01/06 01:29:30;;;;;;;8.20;3.37;;;4.00;97.70;;;;;;4966718;28;20294;-91
2022/01/06 01:32:11;;;;;;;7.57;3.70;;;4.10;98.10;;;;;;4973837;28;20222;-91
2022/01/06 01:34:51;;;;;;;10.17;4.17;;;4.10;98.10;;;;;;4962338;28;20214;-91
2022/01/06 01:40:31;;;;;;;8.10;3.87;;;4.00;99.00;;;;;;4963837;28;20595;-91
2022/01/06 01:43:00;;;;;;;8.20;3.50;;;3.90;99.90;;;;;;4959447;28;20229;-91
2022/01/06 01:45:32;;;;;;;10.77;3.63;;;3.90;99.90;;;;;;4974551;28;20207;-92
2022/01/06 01:48:29;;;;;;;9.63;3.83;;;3.90;99.90;;;;;;4978557;28;20218;-91
2022/01/06 01:50:49;;;;;;;9.00;3.60;;;3.90;99.90;;;;;;4971663;28;20679;-91
2022/01/06 01:56:15;;;;;;;9.57;3.60;;;3.90;99.80;;;;;;4968783;28;20229;-91
2022/01/06 01:58:49;;;;;;;8.50;3.70;;;3.80;99.90;;;;;;4975675;28;20211;-91
2022/01/06 02:01:27;;;;;;;8.67;3.80;;;3.80;99.90;;;;;;4977079;28;20204;-91
2022/01/06 02:04:14;;;;;;;9.23;3.30;;;3.80;99.90;;;;;;4958324;28;20218;-92
2022/01/06 02:06:43;;;;;;;8.10;3.60;;;3.70;99.90;;;;;;4973332;28;20662;-91
2022/01/06 02:09:17;;;;;;;8.80;3.80;;;3.70;99.90;;;;;;4973250;28;20211;-91
2022/01/06 02:11:59;;;;;;;9.50;4.13;;;3.70;99.90;;;;;;4975408;28;20194;-91
2022/01/06 02:14:57;;;;;;;6.10;3.40;;;3.70;99.90;;;;;;4974217;28;20202;-92
2022/01/06 02:20:31;;;;;;;8.50;3.93;;;3.60;99.90;;;;;;4968129;28;20206;-92
2022/01/06 02:23:21;;;;;;;9.33;4.00;;;3.60;99.90;;;;;;4974992;28;20229;-92
2022/01/06 02:25:57;;;;;;;7.47;3.93;;;3.70;99.90;;;;;;4974841;28;20231;-91
2022/01/06 02:28:37;;;;;;;11.30;3.70;;;3.70;99.90;;;;;;4956681;28;20217;-91
2022/01/06 02:31:22;;;;;;;9.13;4.00;;;3.70;99.90;;;;;;4972812;28;20214;-91
2022/01/06 02:34:02;;;;;;;6.03;3.87;;;3.60;99.90;;;;;;4983897;28;20215;-91
2022/01/06 02:37:02;;;;;;;7.27;4.03;;;3.60;99.90;;;;;;4966699;28;20223;-92
2022/01/06 02:40:22;;;;;;;8.47;3.77;;;3.70;99.90;;;;;;4987058;28;20222;-91
2022/01/06 02:43:18;;;;;;;8.87;4.00;;;3.70;99.90;;;;;;4918978;29;20248;-91
2022/01/06 02:46:30;;;;;;;9.60;4.17;;;3.80;99.90;;;;;;4903650;29;20220;-91
2022/01/06 02:49:25;;;;;;;7.17;3.67;;;3.80;99.90;;;;;;4914888;29;20224;-92
2022/01/06 02:55:47;;;;;;;;;;;;;;;;;;;;;
2022/01/06 02:58:24;;;;;;;10.17;4.10;;;3.80;99.90;;;;;;4967025;28;20201;-92
2022/01/06 03:01:07;;;;;;;9.37;4.03;;;3.80;99.90;;;;;;4975653;28;20201;-91
2022/01/06 03:04:26;;;;;;;;;;;;;;;;;;;;;
2022/01/06 03:07:11;;;;;;;7.20;4.00;;;3.90;99.90;;;;;;4966771;28;20298;-92
2022/01/06 03:09:44;;;;;;;12.93;4.63;;;3.70;99.90;;;;;;4956407;28;20229;-91
2022/01/06 03:12:44;;;;;;;;;;;;;;;;;;;;;
2022/01/06 03:16:10;;;;;;;5.77;3.90;;;3.70;99.90;;;;;;4966565;28;20307;-92
2022/01/06 03:18:42;;;;;;;6.17;3.57;;;3.70;99.90;;;;;;4980530;28;20211;-91
2022/01/06 03:21:12;;;;;;;11.57;4.03;;;3.80;99.90;;;;;;4969906;28;20208;-91
2022/01/06 03:23:55;;;;;;;8.23;3.77;;;3.60;99.90;;;;;;4958621;28;20289;-91
2022/01/06 03:29:54;;;;;;;8.50;3.60;;;3.60;99.90;;;;;;4965916;28;20199;-92
2022/01/06 03:36:31;;;;;;;12.93;3.83;;;3.90;99.90;;;;;;4955560;28;20249;-91
2022/01/06 03:42:27;;;;;;;11.40;4.00;;;3.90;99.90;;;;;;4978075;28;20225;-91
2022/01/06 03:45:14;;;;;;;9.97;4.10;;;3.70;99.90;;;;;;4992467;28;20284;-91
2022/01/06 03:48:50;;;;;;;8.97;4.27;;;3.60;99.90;;;;;;4958506;28;20202;-91
2022/01/06 03:51:23;;;;;;;11.03;4.13;;;3.50;99.90;;;;;;4937364;28;20212;-92
2022/01/06 03:57:36;;;;;;;;;;;;;;;;;;;;;
2022/01/06 04:00:22;;;;;;;6.63;3.93;;;3.40;99.90;;;;;;4949349;29;20775;-91
2022/01/06 04:09:20;;;;;;;9.10;4.37;;;3.30;99.90;;;;;;4956958;28;20257;-91
2022/01/06 04:19:17;;;;;;;9.87;3.90;;;3.30;99.90;;;;;;4865794;29;20262;-91
2022/01/06 04:25:29;;;;;;;8.13;4.30;;;3.20;99.90;;;;;;4821696;29;20224;-91
2022/01/06 04:28:43;;;;;;;6.83;4.13;;;3.20;99.90;;;;;;4853020;29;20221;-91
2022/01/06 04:31:42;;;;;;;10.13;4.30;;;3.20;99.90;;;;;;4857291;29;20207;-92
2022/01/06 04:34:24;;;;;;;10.07;4.40;;;3.20;99.90;;;;;;4942538;28;20203;-91
2022/01/06 04:37:37;;;;;;;11.27;4.43;;;3.10;99.90;;;;;;4970633;28;20648;-92
2022/01/06 04:40:36;;;;;;;7.90;4.17;;;3.10;99.90;;;;;;4976522;28;20202;-92
2022/01/06 04:43:08;;;;;;;13.77;4.50;;;3.00;99.90;;;;;;4968030;28;20288;-92
2022/01/06 04:45:43;;;;;;;9.07;4.60;;;3.20;99.90;;;;;;4960314;28;20219;-91
2022/01/06 04:48:22;;;;;;;9.10;4.20;;;3.10;99.90;;;;;;4974387;28;20223;-92
2022/01/06 04:51:08;;;;;;;11.50;4.40;;;3.10;99.90;;;;;;4974926;28;20249;-92
2022/01/06 04:59:08;;;;;;;8.10;4.97;;;2.90;99.90;;;;;;4968636;28;20215;-86
2022/01/06 05:01:34;;;;;;;5.87;4.60;;;3.00;99.90;;;;;;4973362;28;20278;-85
2022/01/06 05:04:01;;;;;;;8.17;4.43;;;2.80;99.90;;;;;;4975137;28;20230;-84
2022/01/06 05:06:26;;;;;;;10.33;4.53;;;2.90;99.90;;;;;;4989265;28;20777;-85
2022/01/06 05:08:53;;;;;;;6.83;4.20;;;2.80;99.90;;;;;;4980914;28;20217;-84
2022/01/06 05:11:19;;;;;;;7.97;4.90;;;2.90;99.90;;;;;;4988035;28;20202;-85
2022/01/06 05:13:44;;;;;;;10.07;4.10;;;2.90;99.90;;;;;;4989050;28;20191;-84
2022/01/06 05:16:10;;;;;;;9.70;4.50;;;2.90;99.90;;;;;;4971627;28;20306;-86
2022/01/06 05:18:36;;;;;;;10.17;4.67;;;2.80;99.90;;;;;;4973970;28;20215;-86
2022/01/06 05:21:07;;;;;;;11.87;4.63;;;2.80;99.90;;;;;;4972293;28;20215;-84
2022/01/06 05:23:33;;;;;;;9.80;5.20;;;2.80;99.90;;;;;;4986556;28;20286;-85
2022/01/06 05:25:59;;;;;;;10.40;4.83;;;2.80;99.90;;;;;;4988808;28;20223;-84
2022/01/06 05:28:25;;;;;;;11.57;4.37;;;2.80;99.90;;;;;;4987791;28;20199;-85
2022/01/06 05:30:52;;;;;;;7.60;4.57;;;2.80;99.90;;;;;;4987109;28;20188;-84
2022/01/06 05:33:18;;;;;;;7.73;4.83;;;2.80;99.90;;;;;;4983514;28;20283;-85
2022/01/06 05:35:44;;;;;;;9.57;5.00;;;2.80;99.90;;;;;;4975280;28;20656;-85
2022/01/06 05:38:09;;;;;;;10.13;5.00;;;2.80;99.90;;;;;;4976320;28;20547;-85
2022/01/06 05:40:35;;;;;;;8.70;5.20;;;2.90;99.90;;;;;;4977971;28;20267;-85
2022/01/06 05:43:01;;;;;;;8.00;4.57;;;3.00;99.90;;;;;;4978251;28;20301;-86
2022/01/06 05:45:28;;;;;;;11.20;4.93;;;3.10;99.90;;;;;;4978729;28;20195;-86
2022/01/06 05:47:53;;;;;;;9.33;4.40;;;3.00;99.90;;;;;;4977047;28;20620;-85
2022/01/06 05:50:20;;;;;;;7.20;4.87;;;3.00;99.90;;;;;;4978040;28;20195;-85
2022/01/06 05:52:46;;;;;;;7.07;4.60;;;3.00;99.90;;;;;;4979659;28;20237;-85
2022/01/06 05:55:12;;;;;;;9.20;5.23;;;3.00;99.90;;;;;;4980209;28;20191;-85
2022/01/06 05:57:38;;;;;;;9.63;4.43;;;3.00;99.90;;;;;;4978835;28;20238;-84
2022/01/06 06:00:07;;;;;;;10.20;4.60;;;3.10;99.90;;;;;;4981287;28;20195;-86
2022/01/06 06:02:33;;;;;;;8.13;4.60;;;3.20;99.90;;;;;;4979472;28;20195;-86
2022/01/06 06:04:59;;;;;;;7.33;4.17;;;3.10;99.90;;;;;;4974394;28;20216;-86
2022/01/06 06:07:25;;;;;;;9.43;4.70;;;3.10;99.90;;;;;;4964558;28;20234;-86
2022/01/06 06:09:51;;;;;;;9.23;4.60;;;3.20;99.90;;;;;;4983340;28;20191;-85
2022/01/06 06:12:17;;;;;;;7.90;4.63;;;3.00;99.90;;;;;;4982021;28;20206;-86
2022/01/06 06:14:43;;;;;;;10.03;5.20;;;3.00;99.90;;;;;;4981928;28;20614;-85
2022/01/06 06:17:09;;;;;;;8.73;4.73;;;2.80;99.90;;;;;;4982903;28;20231;-84
2022/01/06 06:19:35;;;;;;;8.57;5.17;;;2.80;99.90;;;;;;4979165;28;20198;-85
2022/01/06 06:22:01;;;;;;;9.10;5.43;;;2.70;99.90;;;;;;4979524;28;20498;-85
2022/01/06 06:24:26;;;;;;;8.37;5.87;;;2.80;99.90;;;;;;4970925;28;20558;-86
2022/01/06 06:26:52;;;;;;;8.40;4.67;;;2.80;99.90;;;;;;4981796;28;20275;-86
2022/01/06 06:29:19;;;;;;;12.07;5.50;;;2.80;99.90;;;;;;4980174;28;20187;-86
2022/01/06 06:31:45;;;;;;;8.30;4.50;;;2.80;99.90;;;;;;4982218;28;20179;-85
2022/01/06 06:34:11;;;;;;;10.10;5.37;;;2.90;99.90;;;;;;4981055;28;20203;-86
2022/01/06 06:36:37;;;;;;;10.47;5.33;;;2.90;99.90;;;;;;4981721;28;20215;-86
2022/01/06 06:39:03;;;;;;;6.77;5.03;;;2.80;99.90;;;;;;4977985;28;20195;-86
2022/01/06 06:41:29;;;;;;;9.37;5.50;;;2.80;99.90;;;;;;4981237;28;20183;-85
2022/01/06 06:43:54;;;;;;;10.60;5.40;;;2.90;99.90;;;;;;4976520;28;20278;-85
2022/01/06 06:46:20;;;;;;;7.20;5.27;;;2.90;99.90;;;;;;4980266;28;20222;-85
2022/01/06 06:48:46;;;;;;;9.40;5.13;;;3.00;99.90;;;;;;4982615;28;20195;-86
2022/01/06 06:51:13;;;;;;;8.00;5.03;;;3.00;99.90;;;;;;4976620;28;20218;-85
2022/01/06 06:53:40;;;;;;;11.70;5.40;;;3.00;99.90;;;;;;4978903;28;20722;-85
2022/01/06 06:56:06;;;;;;;8.23;5.53;;;2.80;99.90;;;;;;4979039;28;20304;-84
2022/01/06 06:58:32;;;;;;;9.80;5.93;;;2.80;99.90;;;;;;4983129;28;20210;-83
2022/01/06 07:00:58;;;;;;;9.60;5.63;;;2.70;99.90;;;;;;4985467;28;20195;-85
2022/01/06 07:03:23;;;;;;;9.03;5.30;;;2.80;99.90;;;;;;4981876;28;20728;-86
2022/01/06 07:05:49;;;;;;;9.77;5.93;;;2.80;99.90;;;;;;4982253;28;20210;-85
2022/01/06 07:08:15;;;;;;;7.73;5.70;;;2.70;99.90;;;;;;4992540;23;20238;-86
2022/01/06 07:10:41;;;;;;;8.47;5.70;;;2.80;99.90;;;;;;4963715;28;20187;-86
2022/01/06 07:13:07;;;;;;;12.40;6.23;;;2.70;99.90;;;;;;4950451;28;20254;-86
2022/01/06 07:15:34;;;;;;;12.20;6.30;;;2.70;99.90;;;;;;4964943;28;20219;-87
2022/01/06 07:17:59;;;;;;;9.80;5.53;;;2.80;99.90;;;;;;4959362;28;20214;-86
2022/01/06 07:20:25;;;;;;;12.30;5.77;;;2.70;99.90;;;;;;4962259;29;20676;-86
2022/01/06 07:22:51;;;;;;;11.73;5.93;;;2.70;99.90;;;;;;4961176;28;20211;-87
2022/01/06 07:25:17;;;;;;;7.17;5.03;;;2.80;99.90;;;;;;4956473;28;20665;-87
2022/01/06 07:27:42;;;;;;;8.13;5.67;;;2.90;99.90;;;;;;4959633;29;20265;-86
2022/01/06 07:30:09;;;;;;;9.33;5.50;;;2.90;99.90;;;;;;4963492;28;20667;-86
2022/01/06 07:32:49;;;;;;;9.40;5.67;;;3.00;99.90;;;;;;4961588;28;20206;-87
2022/01/06 07:35:17;;;;;;;9.40;5.80;;;3.10;99.90;;;;;;4952894;28;20189;-86
2022/01/06 07:37:42;;;;;;;12.57;6.47;;;2.90;99.90;;;;;;4966171;28;20253;-87
2022/01/06 07:40:09;;;;;;;8.43;6.10;;;2.90;99.90;;;;;;4957814;28;20200;-86
2022/01/06 07:42:36;;;;;;;11.43;6.10;;;2.90;99.90;;;;;;4956158;28;20307;-86
2022/01/06 07:45:03;;;;;;;9.30;6.07;;;3.00;99.90;;;;;;4947301;28;20200;-87
2022/01/06 07:47:31;;;;;;;7.67;5.70;;;2.90;99.90;;;;;;4965848;28;20230;-87
2022/01/06 07:49:57;;;;;;;8.73;6.03;;;3.00;99.90;;;;;;4957281;28;20189;-87
2022/01/06 07:52:23;;;;;;;11.00;6.10;;;2.90;99.90;;;;;;4962205;28;20195;-87
2022/01/06 07:54:49;;;;;;;8.93;5.73;;;2.80;99.90;;;;;;4966159;28;20199;-87
2022/01/06 07:57:15;;;;;;;10.37;6.50;;;2.90;99.90;;;;;;4967924;28;20190;-87
2022/01/06 07:59:41;;;;;;;8.83;5.67;;;3.00;99.90;;;;;;4970115;28;20607;-86
2022/01/06 08:02:08;;;;;;;10.07;6.13;;;2.90;99.90;;;;;;4958035;29;20729;-86
2022/01/06 08:04:34;;;;;;;8.17;6.10;;;2.90;99.90;;;;;;4958051;28;20204;-87
2022/01/06 08:07:00;;;;;;;11.77;6.33;;;2.80;99.90;;;;;;4951259;28;20235;-86
2022/01/06 08:09:26;;;;;;;7.93;6.63;;;2.90;99.90;;;;;;4954741;29;20216;-87
2022/01/06 08:11:52;;;;;;;9.20;5.93;;;2.90;99.90;;;;;;4960853;29;20195;-88
2022/01/06 08:14:18;;;;;;;11.07;6.00;;;3.10;99.90;;;;;;4964836;28;20199;-86
2022/01/06 08:16:43;;;;;;;7.43;5.40;;;3.00;99.90;;;;;;4954734;28;20191;-86
2022/01/06 08:19:09;;;;;;;12.70;6.10;;;2.90;99.90;;;;;;4961619;28;20211;-86
2022/01/06 08:21:35;;;;;;;9.97;5.83;;;3.00;99.90;;;;;;4967713;28;20708;-86
2022/01/06 08:24:01;;;;;;;10.37;5.70;;;3.00;99.90;;;;;;4963675;28;20211;-86
2022/01/06 08:26:26;;;;;;;10.10;6.47;;;3.00;99.90;;;;;;4962711;28;20208;-87
2022/01/06 08:28:52;;;;;;;12.53;6.20;;;3.00;99.90;;;;;;4956621;29;20243;-86
2022/01/06 08:31:18;;;;;;;9.57;5.53;;;3.10;99.90;;;;;;4964663;28;20263;-87
2022/01/06 08:33:45;;;;;;;9.43;5.83;;;3.10;99.90;;;;;;4960792;28;20282;-86
2022/01/06 08:36:11;;;;;;;10.17;6.50;;;3.00;99.90;;;;;;4965851;29;20191;-87
2022/01/06 08:38:37;;;;;;;7.50;6.13;;;3.10;99.90;;;;;;4967731;28;20250;-86
2022/01/06 08:41:03;;;;;;;9.43;6.50;;;3.10;99.90;;;;;;4970109;28;20204;-87
2022/01/06 08:43:29;;;;;;;9.20;6.67;;;3.00;99.90;;;;;;4954128;29;20254;-87
2022/01/06 08:45:56;;;;;;;9.67;6.27;;;3.10;99.90;;;;;;4970748;28;20203;-87
2022/01/06 08:48:23;;;;;;;9.13;5.77;;;3.00;99.90;;;;;;4972849;28;20208;-87
2022/01/06 08:50:48;;;;;;;7.57;5.90;;;3.00;99.90;;;;;;4968371;28;20183;-88
2022/01/06 08:53:15;;;;;;;9.73;7.07;;;3.00;99.90;;;;;;4968007;28;20210;-87
2022/01/06 08:55:41;;;;;;;13.70;6.90;;;3.10;99.90;;;;;;4970849;28;20207;-87
2022/01/06 08:58:07;;;;;;;11.83;6.60;;;3.20;99.90;;;;;;4965137;28;20219;-86
2022/01/06 09:00:33;;;;;;;12.00;7.37;;;3.10;99.90;;;;;;4967649;28;20572;-86
2022/01/06 09:02:59;;;;;;;10.03;6.77;;;3.20;99.90;;;;;;4966376;29;20223;-86
2022/01/06 09:05:25;;;;;;;10.07;6.60;;;3.20;99.90;;;;;;4965199;28;20211;-87
2022/01/06 09:07:51;;;;;;;8.57;6.93;;;3.30;99.90;;;;;;4970852;28;20278;-86
2022/01/06 09:10:18;;;;;;;10.80;5.90;;;3.40;99.90;;;;;;4964646;29;20207;-87
2022/01/06 09:12:45;;;;;;;11.00;6.70;;;3.20;99.90;;;;;;4967021;28;20211;-86
2022/01/06 09:15:11;;;;;;;11.80;6.50;;;3.30;99.90;;;;;;4987012;28;20616;-86
2022/01/06 09:17:38;;;;;;;11.43;7.20;;;3.30;99.90;;;;;;4967415;28;20220;-87
2022/01/06 09:20:06;;;;;;;17.00;7.43;;;3.30;99.90;;;;;;4963453;28;20188;-87
2022/01/06 09:22:32;;;;;;;9.13;6.73;;;3.30;99.90;;;;;;4981860;28;20223;-86
2022/01/06 09:24:58;;;;;;;8.77;6.30;;;3.40;99.90;;;;;;4966965;28;20335;-86
2022/01/06 09:27:24;;;;;;;10.53;6.53;;;3.50;99.90;;;;;;4965711;28;20203;-87
2022/01/06 09:29:53;;;;;;;8.47;6.43;;;3.50;99.90;;;;;;4961064;28;20710;-86
2022/01/06 09:32:19;;;;;;;9.80;7.23;;;3.40;99.90;;;;;;4960513;28;20204;-87
2022/01/06 09:34:46;;;;;;;11.57;6.97;;;3.30;99.90;;;;;;4963213;28;20246;-86
2022/01/06 09:37:11;;;;;;;9.93;6.80;;;3.30;99.90;;;;;;4962529;28;20196;-87
2022/01/06 09:39:37;;;;;;;8.87;7.10;;;3.40;99.90;;;;;;4948692;29;20566;-87
2022/01/06 09:42:03;;;;;;;10.43;7.03;;;3.40;99.90;;;;;;4954237;28;20200;-88
2022/01/06 09:44:30;;;;;;;9.03;7.50;;;3.50;99.90;;;;;;4955039;28;20215;-87
2022/01/06 09:46:56;;;;;;;12.40;8.50;;;3.60;99.90;;;;;;4974309;28;20195;-87
2022/01/06 09:49:23;;;;;;;10.90;7.27;;;3.70;99.90;;;;;;4972792;28;20224;-87
2022/01/06 09:51:51;;;;;;;10.43;7.43;;;3.80;99.90;;;;;;4978059;28;20175;-87
2022/01/06 09:54:18;;;;;;;15.07;8.23;;;3.70;99.90;;;;;;4962524;28;20199;-87
2022/01/06 09:56:43;;;;;;;13.20;8.93;;;3.60;99.90;;;;;;4961173;28;20239;-87
2022/01/06 09:59:09;;;;;;;18.90;10.30;;;3.80;99.90;;;;;;4961108;28;20216;-87
2022/01/06 10:01:35;;;;;;;12.60;7.47;;;3.90;99.90;;;;;;4961817;29;20195;-87
2022/01/06 10:04:01;;;;;;;11.17;8.37;;;3.90;99.90;;;;;;4959365;28;20227;-87
2022/01/06 10:06:28;;;;;;;12.67;7.57;;;3.90;99.90;;;;;;4959101;28;20207;-87
2022/01/06 10:08:56;;;;;;;11.33;7.90;;;3.80;99.90;;;;;;4959743;28;20219;-87
2022/01/06 10:11:28;;;;;;;12.27;8.10;;;3.80;99.90;;;;;;4951466;28;20204;-87
2022/01/06 10:14:04;;;;;;;13.53;8.63;;;3.70;99.90;;;;;;4953641;28;20196;-87
2022/01/06 10:16:30;;;;;;;14.87;8.57;;;3.70;99.90;;;;;;4952120;28;20554;-87
2022/01/06 10:19:06;;;;;;;10.73;7.67;;;3.60;99.90;;;;;;4952803;28;20207;-87
2022/01/06 10:21:38;;;;;;;8.77;7.80;;;3.60;99.90;;;;;;4954822;28;20192;-87
2022/01/06 10:24:12;;;;;;;11.97;8.73;;;3.60;99.90;;;;;;4957362;28;20211;-87
2022/01/06 10:27:04;;;;;;;11.43;9.00;;;3.60;99.90;;;;;;4962733;28;20191;-87
2022/01/06 10:29:43;;;;;;;9.20;7.93;;;3.70;99.90;;;;;;4956208;28;20206;-87
2022/01/06 10:32:15;;;;;;;11.30;6.80;;;3.90;99.90;;;;;;4955468;28;20188;-87
2022/01/06 10:35:02;;;;;;;10.40;7.53;;;4.00;99.90;;;;;;4950073;28;20277;-87
2022/01/06 10:37:44;;;;;;;11.37;7.70;;;4.20;99.90;;;;;;4950791;28;20232;-87
2022/01/06 10:40:22;;;;;;;11.83;8.07;;;4.30;99.90;;;;;;4961171;29;20180;-86
2022/01/06 10:42:50;;;;;;;14.57;7.67;;;4.30;99.90;;;;;;4963518;28;20211;-87
2022/01/06 10:45:23;;;;;;;11.03;7.53;;;4.30;99.90;;;;;;4959649;28;20216;-86
2022/01/06 10:47:51;;;;;;;12.70;7.53;;;4.10;99.90;;;;;;4958220;28;20258;-87
2022/01/06 10:50:24;;;;;;;13.73;7.10;;;4.20;99.90;;;;;;4963894;28;20187;-86
2022/01/06 10:52:58;;;;;;;12.50;6.97;;;4.40;99.90;;;;;;4962366;28;20610;-86
2022/01/06 10:55:27;;;;;;;10.27;6.40;;;4.40;99.90;;;;;;4960170;29;20194;-86
2022/01/06 10:57:57;;;;;;;11.70;6.50;;;4.40;99.90;;;;;;4956825;28;20211;-86
2022/01/06 11:00:27;;;;;;;7.03;5.97;;;4.40;99.90;;;;;;4962099;28;20199;-87
2022/01/06 11:02:52;;;;;;;14.47;7.10;;;4.80;99.90;;;;;;4957044;28;20239;-86
2022/01/06 11:05:18;;;;;;;7.40;6.67;;;4.70;99.90;;;;;;4959342;28;20220;-86
2022/01/06 11:07:44;;;;;;;9.50;6.53;;;4.50;99.90;;;;;;4962192;29;20234;-86
2022/01/06 11:10:20;;;;;;;10.27;5.90;;;4.50;99.90;;;;;;4960915;29;20190;-86
2022/01/06 11:12:46;;;;;;;10.43;6.10;;;4.50;99.90;;;;;;4963066;28;20255;-86
2022/01/06 11:15:12;;;;;;;10.83;5.97;;;4.50;99.90;;;;;;4963453;29;20211;-87
2022/01/06 11:17:38;;;;;;;11.13;6.73;;;4.50;99.90;;;;;;4955694;28;20224;-86
2022/01/06 11:20:04;;;;;;;6.90;5.70;;;4.50;99.90;;;;;;4960451;28;20237;-87
2022/01/06 11:22:30;;;;;;;10.80;6.07;;;4.50;99.90;;;;;;4964380;29;20234;-87
2022/01/06 11:24:59;;;;;;;11.93;6.17;;;4.60;99.90;;;;;;4961307;29;20191;-88
2022/01/06 11:27:34;;;;;;;10.33;6.23;;;4.80;99.90;;;;;;4956078;28;20740;-86
2022/01/06 11:30:13;;;;;;;12.67;6.20;;;5.00;99.90;;;;;;4955699;29;20191;-87
2022/01/06 11:32:41;;;;;;;12.33;6.60;;;5.30;98.90;;;;;;4962458;28;20199;-87
2022/01/06 11:35:11;;;;;;;12.73;6.47;;;5.30;99.00;;;;;;4957381;28;20554;-87
2022/01/06 11:37:49;;;;;;;15.43;6.67;;;5.50;97.70;;;;;;4954670;28;20212;-87
2022/01/06 11:40:27;;;;;;;9.80;6.23;;;5.70;96.90;;;;;;4963837;28;20332;-87
2022/01/06 11:42:54;;;;;;;11.93;6.57;;;5.60;96.70;;;;;;4955246;28;20239;-86
2022/01/06 11:45:20;;;;;;;10.00;6.10;;;5.70;95.50;;;;;;4974638;28;20211;-86
2022/01/06 11:47:47;;;;;;;8.40;5.70;;;5.60;94.60;;;;;;4956573;28;20211;-87
2022/01/06 11:50:24;;;;;;;9.67;5.77;;;5.40;95.20;;;;;;4946195;29;20266;-87
2022/01/06 11:52:56;;;;;;;9.03;5.67;;;5.40;95.60;;;;;;4956944;28;20187;-87
2022/01/06 11:55:28;;;;;;;10.97;6.37;;;5.40;97.30;;;;;;4961115;28;20200;-88
2022/01/06 11:57:54;;;;;;;11.67;6.70;;;5.40;97.30;;;;;;4975801;28;20195;-88
2022/01/06 12:00:30;;;;;;;10.23;6.50;;;5.40;98.40;;;;;;4961686;29;20268;-87
2022/01/06 12:03:05;;;;;;;10.87;6.87;;;5.50;97.80;;;;;;4976952;28;20539;-87
2022/01/06 12:05:49;;;;;;;12.43;6.03;;;5.40;97.10;;;;;;4965970;28;20215;-88
2022/01/06 12:08:33;;;;;;;12.20;6.70;;;5.50;97.00;;;;;;4966014;28;20234;-87
2022/01/06 12:10:59;;;;;;;11.73;6.33;;;5.60;95.10;;;;;;4963841;28;20218;-86
2022/01/06 12:13:25;;;;;;;9.97;6.13;;;5.60;94.50;;;;;;4958078;28;20199;-86
2022/01/06 12:15:53;;;;;;;10.83;6.10;;;5.60;95.30;;;;;;4961302;28;20266;-86
2022/01/06 12:18:29;;;;;;;10.53;6.00;;;5.80;95.90;;;;;;4964200;28;20211;-86
2022/01/06 12:20:57;;;;;;;8.47;5.80;;;5.80;94.80;;;;;;4959547;29;20216;-86
2022/01/06 12:23:24;;;;;;;8.93;5.90;;;5.60;95.70;;;;;;4953270;29;20228;-86
2022/01/06 12:26:03;;;;;;;8.97;5.47;;;5.60;95.70;;;;;;4959409;28;20234;-86
2022/01/06 12:28:32;;;;;;;9.93;6.03;;;5.50;96.70;;;;;;4960614;29;20274;-87
2022/01/06 12:31:04;;;;;;;8.83;6.73;;;5.40;96.90;;;;;;4961332;28;20192;-87
2022/01/06 12:33:31;;;;;;;10.10;6.57;;;5.30;97.80;;;;;;4961382;28;20195;-86
2022/01/06 12:35:58;;;;;;;11.13;5.57;;;5.30;98.70;;;;;;4958529;28;20197;-86
2022/01/06 12:38:28;;;;;;;10.57;5.80;;;5.00;98.60;;;;;;4960192;28;20227;-86
2022/01/06 12:40:55;;;;;;;7.57;5.77;;;4.90;98.40;;;;;;4963718;28;20278;-86
2022/01/06 12:43:26;;;;;;;11.50;6.87;;;5.00;99.30;;;;;;4958056;28;20258;-87
2022/01/06 12:46:12;;;;;;;9.50;5.80;;;5.00;99.90;;;;;;4956725;29;20184;-86
2022/01/06 12:48:47;;;;;;;9.13;5.97;;;5.00;99.30;;;;;;4956518;28;20216;-86
2022/01/06 12:51:35;;;;;;;13.20;6.80;;;5.10;99.20;;;;;;4956948;28;20194;-86
2022/01/06 12:54:04;;;;;;;10.83;5.57;;;4.90;98.00;;;;;;4958899;29;20302;-87
2022/01/06 12:56:32;;;;;;;11.53;5.90;;;5.00;98.00;;;;;;4956235;28;20335;-85
2022/01/06 12:59:01;;;;;;;10.87;5.87;;;4.90;98.50;;;;;;4956829;28;20211;-85
2022/01/06 13:01:30;;;;;;;11.83;5.87;;;5.00;98.00;;;;;;4956742;28;20212;-85
2022/01/06 13:03:57;;;;;;;11.17;5.93;;;5.00;98.40;;;;;;4956686;28;20222;-85
2022/01/06 13:06:28;;;;;;;7.53;5.40;;;4.90;98.40;;;;;;4959504;28;20321;-85
2022/01/06 13:08:56;;;;;;;10.23;5.60;;;4.80;98.00;;;;;;4983383;23;20239;-87
2022/01/06 13:11:24;;;;;;;8.00;5.97;;;4.70;98.80;;;;;;4950271;28;20822;-87
2022/01/06 13:13:59;;;;;;;9.10;5.70;;;4.60;99.30;;;;;;4955123;28;20193;-87
2022/01/06 13:16:33;;;;;;;9.30;5.50;;;4.60;99.50;;;;;;4956475;28;20200;-88
2022/01/06 13:19:14;;;;;;;9.33;5.70;;;4.50;99.80;;;;;;4962183;28;20219;-87
2022/01/06 13:21:52;;;;;;;10.87;5.60;;;4.60;99.90;;;;;;4963329;28;20195;-87
2022/01/06 13:24:25;;;;;;;9.70;6.07;;;4.50;99.90;;;;;;4967990;28;20223;-86
2022/01/06 13:26:52;;;;;;;9.77;6.47;;;4.50;99.90;;;;;;4984141;28;20623;-87
2022/01/06 13:29:36;;;;;;;10.33;6.03;;;4.50;99.90;;;;;;4965677;28;20323;-87
2022/01/06 13:32:06;;;;;;;11.67;5.70;;;4.50;99.90;;;;;;4969145;28;20200;-87
2022/01/06 13:34:35;;;;;;;10.37;6.87;;;4.50;99.80;;;;;;4968111;28;20192;-86
2022/01/06 13:37:13;;;;;;;10.67;5.53;;;4.60;99.80;;;;;;4965537;28;20188;-87
2022/01/06 13:39:42;;;;;;;10.70;6.17;;;4.60;99.90;;;;;;4969227;28;20203;-87
2022/01/06 13:42:10;;;;;;;8.10;5.30;;;4.60;99.30;;;;;;4969377;28;20191;-86
2022/01/06 13:44:37;;;;;;;11.90;5.63;;;4.60;99.40;;;;;;4968321;28;20307;-85
2022/01/06 13:47:09;;;;;;;9.03;5.67;;;4.60;99.60;;;;;;4968229;28;20188;-87
2022/01/06 13:52:24;;;;;;;7.83;5.37;;;4.70;99.00;;;;;;4968459;28;20258;-87
2022/01/06 13:54:50;;;;;;;14.83;6.17;;;4.60;99.20;;;;;;4968964;28;20195;-87
2022/01/06 13:57:16;;;;;;;9.27;5.43;;;4.60;99.30;;;;;;4967191;28;20287;-87
2022/01/06 13:59:42;;;;;;;12.07;5.90;;;4.70;99.90;;;;;;4971229;28;20235;-86
2022/01/06 14:02:10;;;;;;;10.13;6.17;;;4.70;99.90;;;;;;4972363;28;20428;-86
2022/01/06 14:04:38;;;;;;;9.50;5.80;;;4.70;99.50;;;;;;4972433;28;20196;-86
2022/01/06 14:07:04;;;;;;;10.87;5.47;;;4.70;98.90;;;;;;4963862;28;20271;-87
2022/01/06 14:09:30;;;;;;;8.43;5.23;;;4.80;97.80;;;;;;4964623;28;20227;-87
2022/01/06 14:11:57;;;;;;;7.63;5.40;;;4.90;96.70;;;;;;4965308;28;20195;-86
2022/01/06 14:14:24;;;;;;;8.37;5.57;;;4.80;96.20;;;;;;4969193;28;20195;-86
2022/01/06 14:16:50;;;;;;;13.23;6.43;;;4.80;96.40;;;;;;4966243;28;20406;-86
2022/01/06 14:19:16;;;;;;;14.00;6.00;;;4.70;97.10;;;;;;4965065;28;20238;-86
2022/01/06 14:21:42;;;;;;;12.93;5.90;;;4.80;96.80;;;;;;4965752;28;20234;-86
2022/01/06 14:24:07;;;;;;;12.27;6.07;;;4.70;96.90;;;;;;4965306;28;20670;-86
2022/01/06 14:26:33;;;;;;;10.63;7.10;;;4.70;96.00;;;;;;4963647;28;20250;-86
2022/01/06 14:28:59;;;;;;;13.87;5.93;;;4.70;95.90;;;;;;4968096;28;20213;-87